sensor_id;sensor_type;location;lat;lon;timestamp;P1;durP1;ratioP1;P2;durP2;ratioP2
16994;SDS011;8614;48.522;9.206;2023-11-22T00:01:50;20.87;;;19.23;;
16994;SDS011;8614;48.522;9.206;2023-11-22T00:04:17;21.30;;;19.57;;
16994;SDS011;8614;48.522;9.206;2023-11-22T00:06:44;21.10;;;19.33;;
16994;SDS011;8614;48.522;9.206;2023-11-22T00:09:11;22.53;;;20.43;;
16994;SDS011;8614;48.522;9.206;2023-11-22T00:11:37;22.00;;;20.20;;
16994;SDS011;8614;48.522;9.206;2023-11-22T00:14:05;22.20;;;20.30;;
16994;SDS011;8614;48.522;9.206;2023-11-22T00:16:32;23.60;;;21.40;;
16994;SDS011;8614;48.522;9.206;2023-11-22T00:19:02;23.10;;;21.20;;
16994;SDS011;8614;48.522;9.206;2023-11-22T00:21:30;22.00;;;20.10;;
16994;SDS011;8614;48.522;9.206;2023-11-22T00:23:57;23.37;;;21.27;;
16994;SDS011;8614;48.522;9.206;2023-11-22T00:26:24;22.77;;;20.87;;
16994;SDS011;8614;48.522;9.206;2023-11-22T00:28:56;22.10;;;20.40;;
16994;SDS011;8614;48.522;9.206;2023-11-22T00:31:24;23.27;;;21.33;;
16994;SDS011;8614;48.522;9.206;2023-11-22T00:33:51;23.17;;;21.10;;
16994;SDS011;8614;48.522;9.206;2023-11-22T00:36:17;23.53;;;21.50;;
16994;SDS011;8614;48.522;9.206;2023-11-22T00:38:44;22.93;;;21.03;;
16994;SDS011;8614;48.522;9.206;2023-11-22T00:41:10;14.17;;;12.77;;
16994;SDS011;8614;48.522;9.206;2023-11-22T00:43:39;16.17;;;14.47;;
16994;SDS011;8614;48.522;9.206;2023-11-22T00:46:06;13.93;;;11.87;;
16994;SDS011;8614;48.522;9.206;2023-11-22T00:48:34;14.07;;;12.20;;
16994;SDS011;8614;48.522;9.206;2023-11-22T00:51:01;14.90;;;10.83;;
16994;SDS011;8614;48.522;9.206;2023-11-22T00:53:33;21.73;;;19.93;;
16994;SDS011;8614;48.522;9.206;2023-11-22T00:56:01;21.23;;;19.43;;
16994;SDS011;8614;48.522;9.206;2023-11-22T00:58:29;14.27;;;12.77;;
16994;SDS011;8614;48.522;9.206;2023-11-22T01:00:56;17.63;;;16.07;;
16994;SDS011;8614;48.522;9.206;2023-11-22T01:03:22;23.33;;;21.37;;
16994;SDS011;8614;48.522;9.206;2023-11-22T01:05:50;15.50;;;12.83;;
16994;SDS011;8614;48.522;9.206;2023-11-22T01:08:18;20.63;;;18.80;;
16994;SDS011;8614;48.522;9.206;2023-11-22T01:10:45;13.60;;;9.97;;
16994;SDS011;8614;48.522;9.206;2023-11-22T01:13:12;16.43;;;14.93;;
16994;SDS011;8614;48.522;9.206;2023-11-22T01:15:39;19.37;;;17.60;;
16994;SDS011;8614;48.522;9.206;2023-11-22T01:18:05;15.53;;;14.33;;
16994;SDS011;8614;48.522;9.206;2023-11-22T01:20:32;11.43;;;10.30;;
16994;SDS011;8614;48.522;9.206;2023-11-22T01:23:01;16.83;;;15.63;;
16994;SDS011;8614;48.522;9.206;2023-11-22T01:25:28;15.63;;;14.63;;
16994;SDS011;8614;48.522;9.206;2023-11-22T01:27:54;14.83;;;13.93;;
16994;SDS011;8614;48.522;9.206;2023-11-22T01:30:21;15.70;;;14.53;;
16994;SDS011;8614;48.522;9.206;2023-11-22T01:32:48;15.00;;;14.10;;
16994;SDS011;8614;48.522;9.206;2023-11-22T01:35:15;14.97;;;14.07;;
16994;SDS011;8614;48.522;9.206;2023-11-22T01:37:42;15.30;;;14.30;;
16994;SDS011;8614;48.522;9.206;2023-11-22T01:40:10;15.33;;;14.43;;
16994;SDS011;8614;48.522;9.206;2023-11-22T01:42:38;15.60;;;14.60;;
16994;SDS011;8614;48.522;9.206;2023-11-22T01:45:05;15.80;;;14.80;;
16994;SDS011;8614;48.522;9.206;2023-11-22T01:47:33;17.00;;;15.90;;
16994;SDS011;8614;48.522;9.206;2023-11-22T01:50:02;17.37;;;16.30;;
16994;SDS011;8614;48.522;9.206;2023-11-22T01:52:30;18.00;;;16.87;;
16994;SDS011;8614;48.522;9.206;2023-11-22T01:54:57;18.07;;;16.90;;
16994;SDS011;8614;48.522;9.206;2023-11-22T01:57:26;18.80;;;17.50;;
16994;SDS011;8614;48.522;9.206;2023-11-22T01:59:53;18.37;;;17.17;;
16994;SDS011;8614;48.522;9.206;2023-11-22T02:02:21;19.30;;;18.10;;
16994;SDS011;8614;48.522;9.206;2023-11-22T02:04:48;19.43;;;18.20;;
16994;SDS011;8614;48.522;9.206;2023-11-22T02:07:15;19.07;;;17.87;;
16994;SDS011;8614;48.522;9.206;2023-11-22T02:09:42;19.27;;;18.07;;
16994;SDS011;8614;48.522;9.206;2023-11-22T02:12:11;19.27;;;18.00;;
16994;SDS011;8614;48.522;9.206;2023-11-22T02:14:40;19.77;;;18.47;;
16994;SDS011;8614;48.522;9.206;2023-11-22T02:17:07;19.80;;;18.50;;
16994;SDS011;8614;48.522;9.206;2023-11-22T02:19:34;19.57;;;18.27;;
16994;SDS011;8614;48.522;9.206;2023-11-22T02:22:02;19.93;;;18.63;;
16994;SDS011;8614;48.522;9.206;2023-11-22T02:24:30;19.70;;;18.40;;
16994;SDS011;8614;48.522;9.206;2023-11-22T02:26:59;19.77;;;18.43;;
16994;SDS011;8614;48.522;9.206;2023-11-22T02:29:26;20.20;;;18.90;;
16994;SDS011;8614;48.522;9.206;2023-11-22T02:31:54;19.87;;;18.47;;
16994;SDS011;8614;48.522;9.206;2023-11-22T02:34:21;20.70;;;19.30;;
16994;SDS011;8614;48.522;9.206;2023-11-22T02:36:48;20.20;;;18.63;;
16994;SDS011;8614;48.522;9.206;2023-11-22T02:39:14;19.80;;;18.47;;
16994;SDS011;8614;48.522;9.206;2023-11-22T02:41:43;19.83;;;18.47;;
16994;SDS011;8614;48.522;9.206;2023-11-22T02:44:09;19.23;;;17.93;;
16994;SDS011;8614;48.522;9.206;2023-11-22T02:46:40;20.23;;;18.77;;
16994;SDS011;8614;48.522;9.206;2023-11-22T02:49:07;20.13;;;18.63;;
16994;SDS011;8614;48.522;9.206;2023-11-22T02:51:36;19.47;;;18.17;;
16994;SDS011;8614;48.522;9.206;2023-11-22T02:54:03;19.90;;;18.47;;
16994;SDS011;8614;48.522;9.206;2023-11-22T02:56:30;19.27;;;18.07;;
16994;SDS011;8614;48.522;9.206;2023-11-22T02:58:58;21.33;;;19.73;;
16994;SDS011;8614;48.522;9.206;2023-11-22T03:01:25;20.00;;;18.70;;
16994;SDS011;8614;48.522;9.206;2023-11-22T03:03:52;21.30;;;19.83;;
16994;SDS011;8614;48.522;9.206;2023-11-22T03:06:19;20.47;;;19.07;;
16994;SDS011;8614;48.522;9.206;2023-11-22T03:08:46;22.20;;;20.53;;
16994;SDS011;8614;48.522;9.206;2023-11-22T03:11:13;20.77;;;19.37;;
16994;SDS011;8614;48.522;9.206;2023-11-22T03:13:40;20.47;;;19.07;;
16994;SDS011;8614;48.522;9.206;2023-11-22T03:16:10;20.53;;;19.13;;
16994;SDS011;8614;48.522;9.206;2023-11-22T03:18:37;21.03;;;19.53;;
16994;SDS011;8614;48.522;9.206;2023-11-22T03:21:05;20.87;;;19.37;;
16994;SDS011;8614;48.522;9.206;2023-11-22T03:23:33;19.33;;;18.03;;
16994;SDS011;8614;48.522;9.206;2023-11-22T03:25:59;20.17;;;18.77;;
16994;SDS011;8614;48.522;9.206;2023-11-22T03:28:26;20.10;;;18.70;;
16994;SDS011;8614;48.522;9.206;2023-11-22T03:30:55;19.40;;;18.10;;
16994;SDS011;8614;48.522;9.206;2023-11-22T03:33:23;19.03;;;17.73;;
16994;SDS011;8614;48.522;9.206;2023-11-22T03:35:51;19.43;;;18.13;;
16994;SDS011;8614;48.522;9.206;2023-11-22T03:38:18;18.90;;;17.60;;
16994;SDS011;8614;48.522;9.206;2023-11-22T03:40:46;19.20;;;17.90;;
16994;SDS011;8614;48.522;9.206;2023-11-22T03:43:13;18.67;;;17.33;;
16994;SDS011;8614;48.522;9.206;2023-11-22T03:45:39;18.80;;;17.50;;
16994;SDS011;8614;48.522;9.206;2023-11-22T03:48:06;19.30;;;17.80;;
16994;SDS011;8614;48.522;9.206;2023-11-22T03:50:34;18.70;;;17.40;;
16994;SDS011;8614;48.522;9.206;2023-11-22T03:53:02;18.83;;;17.43;;
16994;SDS011;8614;48.522;9.206;2023-11-22T03:55:29;19.20;;;17.70;;
16994;SDS011;8614;48.522;9.206;2023-11-22T03:57:56;18.83;;;17.60;;
16994;SDS011;8614;48.522;9.206;2023-11-22T04:00:22;20.40;;;18.83;;
16994;SDS011;8614;48.522;9.206;2023-11-22T04:02:50;19.77;;;18.27;;
16994;SDS011;8614;48.522;9.206;2023-11-22T04:05:17;19.83;;;18.43;;
16994;SDS011;8614;48.522;9.206;2023-11-22T04:07:46;20.13;;;18.70;;
16994;SDS011;8614;48.522;9.206;2023-11-22T04:10:13;19.10;;;17.80;;
16994;SDS011;8614;48.522;9.206;2023-11-22T04:12:40;20.10;;;18.70;;
16994;SDS011;8614;48.522;9.206;2023-11-22T04:15:07;19.50;;;17.90;;
16994;SDS011;8614;48.522;9.206;2023-11-22T04:17:35;19.13;;;17.73;;
16994;SDS011;8614;48.522;9.206;2023-11-22T04:20:03;19.40;;;17.93;;
16994;SDS011;8614;48.522;9.206;2023-11-22T04:22:34;18.97;;;17.47;;
16994;SDS011;8614;48.522;9.206;2023-11-22T04:25:02;19.03;;;17.73;;
16994;SDS011;8614;48.522;9.206;2023-11-22T04:27:29;19.73;;;18.43;;
16994;SDS011;8614;48.522;9.206;2023-11-22T04:29:56;18.70;;;17.50;;
16994;SDS011;8614;48.522;9.206;2023-11-22T04:32:23;19.47;;;18.17;;
16994;SDS011;8614;48.522;9.206;2023-11-22T04:34:49;20.10;;;18.60;;
16994;SDS011;8614;48.522;9.206;2023-11-22T04:37:16;20.33;;;18.90;;
16994;SDS011;8614;48.522;9.206;2023-11-22T04:39:43;20.43;;;19.03;;
16994;SDS011;8614;48.522;9.206;2023-11-22T04:42:11;20.07;;;18.67;;
16994;SDS011;8614;48.522;9.206;2023-11-22T04:44:38;20.50;;;19.07;;
16994;SDS011;8614;48.522;9.206;2023-11-22T04:47:05;20.87;;;19.37;;
16994;SDS011;8614;48.522;9.206;2023-11-22T04:49:32;20.63;;;19.03;;
16994;SDS011;8614;48.522;9.206;2023-11-22T04:51:58;20.80;;;19.30;;
16994;SDS011;8614;48.522;9.206;2023-11-22T04:54:26;20.50;;;19.10;;
16994;SDS011;8614;48.522;9.206;2023-11-22T04:56:53;20.57;;;19.07;;
16994;SDS011;8614;48.522;9.206;2023-11-22T04:59:22;20.90;;;19.40;;
16994;SDS011;8614;48.522;9.206;2023-11-22T05:01:49;21.20;;;19.53;;
16994;SDS011;8614;48.522;9.206;2023-11-22T05:04:15;20.80;;;19.30;;
16994;SDS011;8614;48.522;9.206;2023-11-22T05:06:43;20.67;;;19.20;;
16994;SDS011;8614;48.522;9.206;2023-11-22T05:09:11;20.77;;;19.27;;
16994;SDS011;8614;48.522;9.206;2023-11-22T05:11:39;19.93;;;18.53;;
16994;SDS011;8614;48.522;9.206;2023-11-22T05:14:07;20.27;;;18.87;;
16994;SDS011;8614;48.522;9.206;2023-11-22T05:16:35;20.20;;;18.60;;
16994;SDS011;8614;48.522;9.206;2023-11-22T05:19:02;19.03;;;17.63;;
16994;SDS011;8614;48.522;9.206;2023-11-22T05:21:29;19.80;;;18.40;;
16994;SDS011;8614;48.522;9.206;2023-11-22T05:23:55;19.87;;;18.47;;
16994;SDS011;8614;48.522;9.206;2023-11-22T05:26:22;19.80;;;18.37;;
16994;SDS011;8614;48.522;9.206;2023-11-22T05:28:49;20.07;;;18.67;;
16994;SDS011;8614;48.522;9.206;2023-11-22T05:31:19;19.80;;;18.30;;
16994;SDS011;8614;48.522;9.206;2023-11-22T05:33:47;20.07;;;18.77;;
16994;SDS011;8614;48.522;9.206;2023-11-22T05:36:14;20.60;;;19.20;;
16994;SDS011;8614;48.522;9.206;2023-11-22T05:38:42;20.33;;;18.93;;
16994;SDS011;8614;48.522;9.206;2023-11-22T05:41:09;20.03;;;18.53;;
16994;SDS011;8614;48.522;9.206;2023-11-22T05:43:35;20.10;;;18.70;;
16994;SDS011;8614;48.522;9.206;2023-11-22T05:46:02;19.70;;;18.23;;
16994;SDS011;8614;48.522;9.206;2023-11-22T05:48:29;19.90;;;18.40;;
16994;SDS011;8614;48.522;9.206;2023-11-22T05:50:58;19.70;;;18.33;;
16994;SDS011;8614;48.522;9.206;2023-11-22T05:53:25;19.73;;;18.40;;
16994;SDS011;8614;48.522;9.206;2023-11-22T05:55:51;19.17;;;17.67;;
16994;SDS011;8614;48.522;9.206;2023-11-22T05:58:18;19.90;;;18.27;;
16994;SDS011;8614;48.522;9.206;2023-11-22T06:00:46;18.83;;;17.53;;
16994;SDS011;8614;48.522;9.206;2023-11-22T06:03:13;18.30;;;17.13;;
16994;SDS011;8614;48.522;9.206;2023-11-22T06:05:40;18.90;;;17.40;;
16994;SDS011;8614;48.522;9.206;2023-11-22T06:08:08;19.27;;;17.97;;
16994;SDS011;8614;48.522;9.206;2023-11-22T06:10:35;19.03;;;17.77;;
16994;SDS011;8614;48.522;9.206;2023-11-22T06:13:03;18.47;;;17.27;;
16994;SDS011;8614;48.522;9.206;2023-11-22T06:15:30;19.27;;;17.97;;
16994;SDS011;8614;48.522;9.206;2023-11-22T06:17:56;18.47;;;17.17;;
16994;SDS011;8614;48.522;9.206;2023-11-22T06:20:23;18.50;;;17.30;;
16994;SDS011;8614;48.522;9.206;2023-11-22T06:22:52;19.17;;;17.87;;
16994;SDS011;8614;48.522;9.206;2023-11-22T06:25:20;18.60;;;17.37;;
16994;SDS011;8614;48.522;9.206;2023-11-22T06:27:47;17.97;;;16.77;;
16994;SDS011;8614;48.522;9.206;2023-11-22T06:30:13;19.17;;;17.80;;
16994;SDS011;8614;48.522;9.206;2023-11-22T06:32:40;18.47;;;17.27;;
16994;SDS011;8614;48.522;9.206;2023-11-22T06:35:08;19.77;;;18.37;;
16994;SDS011;8614;48.522;9.206;2023-11-22T06:37:36;18.50;;;17.30;;
16994;SDS011;8614;48.522;9.206;2023-11-22T06:40:04;19.70;;;18.40;;
16994;SDS011;8614;48.522;9.206;2023-11-22T06:42:32;17.90;;;16.70;;
16994;SDS011;8614;48.522;9.206;2023-11-22T06:44:59;17.43;;;16.33;;
16994;SDS011;8614;48.522;9.206;2023-11-22T06:47:27;18.70;;;17.50;;
16994;SDS011;8614;48.522;9.206;2023-11-22T06:49:54;17.90;;;16.70;;
16994;SDS011;8614;48.522;9.206;2023-11-22T06:52:20;18.27;;;17.07;;
16994;SDS011;8614;48.522;9.206;2023-11-22T06:54:47;18.03;;;16.83;;
16994;SDS011;8614;48.522;9.206;2023-11-22T06:57:14;18.10;;;16.97;;
16994;SDS011;8614;48.522;9.206;2023-11-22T06:59:42;17.87;;;16.77;;
16994;SDS011;8614;48.522;9.206;2023-11-22T07:02:09;18.60;;;17.33;;
16994;SDS011;8614;48.522;9.206;2023-11-22T07:04:36;18.83;;;17.47;;
16994;SDS011;8614;48.522;9.206;2023-11-22T07:07:04;16.60;;;15.50;;
16994;SDS011;8614;48.522;9.206;2023-11-22T07:09:34;16.00;;;15.00;;
16994;SDS011;8614;48.522;9.206;2023-11-22T07:12:01;16.70;;;15.50;;
16994;SDS011;8614;48.522;9.206;2023-11-22T07:14:31;16.33;;;15.30;;
16994;SDS011;8614;48.522;9.206;2023-11-22T07:16:59;16.13;;;14.97;;
16994;SDS011;8614;48.522;9.206;2023-11-22T07:19:26;16.30;;;15.30;;
16994;SDS011;8614;48.522;9.206;2023-11-22T07:21:53;16.27;;;15.23;;
16994;SDS011;8614;48.522;9.206;2023-11-22T07:24:20;15.93;;;14.90;;
16994;SDS011;8614;48.522;9.206;2023-11-22T07:26:48;15.60;;;14.50;;
16994;SDS011;8614;48.522;9.206;2023-11-22T07:29:15;15.73;;;14.73;;
16994;SDS011;8614;48.522;9.206;2023-11-22T07:31:42;15.70;;;14.60;;
16994;SDS011;8614;48.522;9.206;2023-11-22T07:34:11;16.03;;;15.00;;
16994;SDS011;8614;48.522;9.206;2023-11-22T07:36:38;16.43;;;15.33;;
16994;SDS011;8614;48.522;9.206;2023-11-22T07:39:05;17.10;;;16.00;;
16994;SDS011;8614;48.522;9.206;2023-11-22T07:41:32;16.63;;;15.43;;
16994;SDS011;8614;48.522;9.206;2023-11-22T07:44:00;16.83;;;15.63;;
16994;SDS011;8614;48.522;9.206;2023-11-22T07:46:26;16.93;;;15.73;;
16994;SDS011;8614;48.522;9.206;2023-11-22T07:48:53;15.87;;;14.87;;
16994;SDS011;8614;48.522;9.206;2023-11-22T07:51:21;16.37;;;15.27;;
16994;SDS011;8614;48.522;9.206;2023-11-22T07:53:49;17.27;;;16.07;;
16994;SDS011;8614;48.522;9.206;2023-11-22T07:56:16;16.97;;;15.77;;
16994;SDS011;8614;48.522;9.206;2023-11-22T07:58:43;16.73;;;15.63;;
16994;SDS011;8614;48.522;9.206;2023-11-22T08:01:10;17.33;;;16.23;;
16994;SDS011;8614;48.522;9.206;2023-11-22T08:03:38;16.90;;;15.80;;
16994;SDS011;8614;48.522;9.206;2023-11-22T08:06:09;17.23;;;16.13;;
16994;SDS011;8614;48.522;9.206;2023-11-22T08:08:37;17.53;;;16.23;;
16994;SDS011;8614;48.522;9.206;2023-11-22T08:11:04;17.20;;;16.00;;
16994;SDS011;8614;48.522;9.206;2023-11-22T08:13:40;17.27;;;15.97;;
16994;SDS011;8614;48.522;9.206;2023-11-22T08:16:08;16.90;;;15.80;;
16994;SDS011;8614;48.522;9.206;2023-11-22T08:18:34;16.90;;;15.80;;
16994;SDS011;8614;48.522;9.206;2023-11-22T08:21:01;17.00;;;15.90;;
16994;SDS011;8614;48.522;9.206;2023-11-22T08:23:29;17.13;;;15.83;;
16994;SDS011;8614;48.522;9.206;2023-11-22T08:25:58;17.50;;;16.30;;
16994;SDS011;8614;48.522;9.206;2023-11-22T08:28:25;17.87;;;16.57;;
16994;SDS011;8614;48.522;9.206;2023-11-22T08:30:52;17.20;;;16.10;;
16994;SDS011;8614;48.522;9.206;2023-11-22T08:33:19;17.77;;;16.47;;
16994;SDS011;8614;48.522;9.206;2023-11-22T08:35:47;17.00;;;15.90;;
16994;SDS011;8614;48.522;9.206;2023-11-22T08:38:17;17.03;;;15.90;;
16994;SDS011;8614;48.522;9.206;2023-11-22T08:40:44;17.50;;;16.30;;
16994;SDS011;8614;48.522;9.206;2023-11-22T08:43:12;18.00;;;16.60;;
16994;SDS011;8614;48.522;9.206;2023-11-22T08:45:39;18.17;;;16.87;;
16994;SDS011;8614;48.522;9.206;2023-11-22T08:48:09;18.33;;;17.07;;
16994;SDS011;8614;48.522;9.206;2023-11-22T08:50:36;18.60;;;17.30;;
16994;SDS011;8614;48.522;9.206;2023-11-22T08:53:03;18.20;;;17.00;;
16994;SDS011;8614;48.522;9.206;2023-11-22T08:55:30;18.13;;;16.87;;
16994;SDS011;8614;48.522;9.206;2023-11-22T08:57:58;18.63;;;17.33;;
16994;SDS011;8614;48.522;9.206;2023-11-22T09:00:27;18.93;;;17.63;;
16994;SDS011;8614;48.522;9.206;2023-11-22T09:02:57;18.47;;;17.27;;
16994;SDS011;8614;48.522;9.206;2023-11-22T09:05:24;17.93;;;16.73;;
16994;SDS011;8614;48.522;9.206;2023-11-22T09:07:52;17.20;;;16.10;;
16994;SDS011;8614;48.522;9.206;2023-11-22T09:10:20;17.80;;;16.60;;
16994;SDS011;8614;48.522;9.206;2023-11-22T09:12:47;17.87;;;16.73;;
16994;SDS011;8614;48.522;9.206;2023-11-22T09:15:15;17.60;;;16.40;;
16994;SDS011;8614;48.522;9.206;2023-11-22T09:17:45;17.83;;;16.47;;
16994;SDS011;8614;48.522;9.206;2023-11-22T09:20:12;17.33;;;16.13;;
16994;SDS011;8614;48.522;9.206;2023-11-22T09:22:43;16.73;;;15.63;;
16994;SDS011;8614;48.522;9.206;2023-11-22T09:25:13;18.23;;;17.03;;
16994;SDS011;8614;48.522;9.206;2023-11-22T09:27:41;17.20;;;16.10;;
16994;SDS011;8614;48.522;9.206;2023-11-22T09:30:12;17.47;;;16.37;;
16994;SDS011;8614;48.522;9.206;2023-11-22T09:32:46;17.93;;;16.73;;
16994;SDS011;8614;48.522;9.206;2023-11-22T09:35:13;17.43;;;16.33;;
16994;SDS011;8614;48.522;9.206;2023-11-22T09:37:41;17.70;;;16.60;;
16994;SDS011;8614;48.522;9.206;2023-11-22T09:40:10;18.00;;;16.70;;
16994;SDS011;8614;48.522;9.206;2023-11-22T09:42:39;18.27;;;16.97;;
16994;SDS011;8614;48.522;9.206;2023-11-22T09:45:06;18.00;;;16.90;;
16994;SDS011;8614;48.522;9.206;2023-11-22T09:47:34;17.87;;;16.77;;
16994;SDS011;8614;48.522;9.206;2023-11-22T09:50:02;17.37;;;16.27;;
16994;SDS011;8614;48.522;9.206;2023-11-22T09:52:33;17.47;;;16.27;;
16994;SDS011;8614;48.522;9.206;2023-11-22T09:55:02;16.93;;;15.83;;
16994;SDS011;8614;48.522;9.206;2023-11-22T09:57:30;17.00;;;15.90;;
16994;SDS011;8614;48.522;9.206;2023-11-22T09:59:59;17.47;;;16.30;;
16994;SDS011;8614;48.522;9.206;2023-11-22T10:02:34;17.57;;;16.37;;
16994;SDS011;8614;48.522;9.206;2023-11-22T10:05:05;17.03;;;15.77;;
16994;SDS011;8614;48.522;9.206;2023-11-22T10:07:33;17.63;;;16.43;;
16994;SDS011;8614;48.522;9.206;2023-11-22T10:10:00;17.17;;;15.93;;
16994;SDS011;8614;48.522;9.206;2023-11-22T10:12:30;16.97;;;15.80;;
16994;SDS011;8614;48.522;9.206;2023-11-22T10:15:02;16.77;;;15.67;;
16994;SDS011;8614;48.522;9.206;2023-11-22T10:17:37;16.73;;;15.63;;
16994;SDS011;8614;48.522;9.206;2023-11-22T10:20:06;16.80;;;15.60;;
16994;SDS011;8614;48.522;9.206;2023-11-22T10:22:45;16.93;;;15.80;;
16994;SDS011;8614;48.522;9.206;2023-11-22T10:25:13;16.50;;;15.30;;
16994;SDS011;8614;48.522;9.206;2023-11-22T10:27:44;17.00;;;15.67;;
16994;SDS011;8614;48.522;9.206;2023-11-22T10:30:12;16.10;;;15.00;;
16994;SDS011;8614;48.522;9.206;2023-11-22T10:32:40;16.97;;;15.87;;
16994;SDS011;8614;48.522;9.206;2023-11-22T10:35:09;16.93;;;15.77;;
16994;SDS011;8614;48.522;9.206;2023-11-22T10:37:35;17.00;;;15.90;;
16994;SDS011;8614;48.522;9.206;2023-11-22T10:40:02;17.87;;;16.30;;
16994;SDS011;8614;48.522;9.206;2023-11-22T10:42:32;17.27;;;15.87;;
16994;SDS011;8614;48.522;9.206;2023-11-22T10:45:00;15.97;;;14.87;;
16994;SDS011;8614;48.522;9.206;2023-11-22T10:47:28;16.17;;;14.93;;
16994;SDS011;8614;48.522;9.206;2023-11-22T10:49:57;16.37;;;15.07;;
16994;SDS011;8614;48.522;9.206;2023-11-22T10:52:27;17.13;;;15.77;;
16994;SDS011;8614;48.522;9.206;2023-11-22T10:54:58;17.03;;;15.87;;
16994;SDS011;8614;48.522;9.206;2023-11-22T10:57:30;17.13;;;15.93;;
16994;SDS011;8614;48.522;9.206;2023-11-22T10:59:59;17.57;;;16.37;;
16994;SDS011;8614;48.522;9.206;2023-11-22T11:02:35;16.60;;;15.50;;
16994;SDS011;8614;48.522;9.206;2023-11-22T11:05:09;16.50;;;15.30;;
16994;SDS011;8614;48.522;9.206;2023-11-22T11:07:44;16.43;;;15.33;;
16994;SDS011;8614;48.522;9.206;2023-11-22T11:10:17;16.40;;;15.30;;
16994;SDS011;8614;48.522;9.206;2023-11-22T11:12:46;16.73;;;15.53;;
16994;SDS011;8614;48.522;9.206;2023-11-22T11:15:14;17.20;;;16.07;;
16994;SDS011;8614;48.522;9.206;2023-11-22T11:17:43;17.30;;;15.80;;
16994;SDS011;8614;48.522;9.206;2023-11-22T11:20:14;17.57;;;16.30;;
16994;SDS011;8614;48.522;9.206;2023-11-22T11:22:42;16.80;;;15.60;;
16994;SDS011;8614;48.522;9.206;2023-11-22T11:25:14;16.60;;;15.50;;
16994;SDS011;8614;48.522;9.206;2023-11-22T11:27:43;16.40;;;15.20;;
16994;SDS011;8614;48.522;9.206;2023-11-22T11:33:09;17.47;;;16.07;;
16994;SDS011;8614;48.522;9.206;2023-11-22T11:35:38;16.97;;;15.77;;
16994;SDS011;8614;48.522;9.206;2023-11-22T11:38:07;17.60;;;16.30;;
16994;SDS011;8614;48.522;9.206;2023-11-22T11:40:34;16.90;;;15.77;;
16994;SDS011;8614;48.522;9.206;2023-11-22T11:43:02;16.90;;;15.70;;
16994;SDS011;8614;48.522;9.206;2023-11-22T11:45:34;17.43;;;16.03;;
16994;SDS011;8614;48.522;9.206;2023-11-22T11:48:04;16.60;;;15.40;;
16994;SDS011;8614;48.522;9.206;2023-11-22T11:50:31;17.37;;;16.07;;
16994;SDS011;8614;48.522;9.206;2023-11-22T11:52:58;17.47;;;16.10;;
16994;SDS011;8614;48.522;9.206;2023-11-22T11:55:27;17.03;;;15.63;;
16994;SDS011;8614;48.522;9.206;2023-11-22T11:57:54;17.77;;;16.37;;
16994;SDS011;8614;48.522;9.206;2023-11-22T12:00:21;17.40;;;16.13;;
16994;SDS011;8614;48.522;9.206;2023-11-22T12:02:49;16.43;;;15.23;;
16994;SDS011;8614;48.522;9.206;2023-11-22T12:05:18;16.87;;;15.67;;
16994;SDS011;8614;48.522;9.206;2023-11-22T12:07:45;16.87;;;15.57;;
16994;SDS011;8614;48.522;9.206;2023-11-22T12:10:13;17.67;;;16.47;;
16994;SDS011;8614;48.522;9.206;2023-11-22T12:12:43;17.03;;;15.67;;
16994;SDS011;8614;48.522;9.206;2023-11-22T12:15:11;17.40;;;16.20;;
16994;SDS011;8614;48.522;9.206;2023-11-22T12:17:40;17.97;;;16.67;;
16994;SDS011;8614;48.522;9.206;2023-11-22T12:20:10;17.23;;;16.03;;
16994;SDS011;8614;48.522;9.206;2023-11-22T12:22:39;17.70;;;16.40;;
16994;SDS011;8614;48.522;9.206;2023-11-22T12:25:07;17.67;;;16.23;;
16994;SDS011;8614;48.522;9.206;2023-11-22T12:27:37;17.87;;;16.50;;
16994;SDS011;8614;48.522;9.206;2023-11-22T12:30:07;16.97;;;15.77;;
16994;SDS011;8614;48.522;9.206;2023-11-22T12:32:38;16.87;;;15.70;;
16994;SDS011;8614;48.522;9.206;2023-11-22T12:35:06;17.00;;;15.70;;
16994;SDS011;8614;48.522;9.206;2023-11-22T12:37:33;17.73;;;16.23;;
16994;SDS011;8614;48.522;9.206;2023-11-22T12:40:06;17.00;;;15.80;;
16994;SDS011;8614;48.522;9.206;2023-11-22T12:42:47;17.27;;;15.97;;
16994;SDS011;8614;48.522;9.206;2023-11-22T12:45:20;17.03;;;15.83;;
16994;SDS011;8614;48.522;9.206;2023-11-22T12:47:49;17.33;;;16.13;;
16994;SDS011;8614;48.522;9.206;2023-11-22T12:50:33;17.20;;;16.00;;
16994;SDS011;8614;48.522;9.206;2023-11-22T12:53:09;17.97;;;16.60;;
16994;SDS011;8614;48.522;9.206;2023-11-22T12:55:37;17.90;;;16.60;;
16994;SDS011;8614;48.522;9.206;2023-11-22T12:58:05;17.33;;;16.07;;
16994;SDS011;8614;48.522;9.206;2023-11-22T13:00:34;19.63;;;18.10;;
16994;SDS011;8614;48.522;9.206;2023-11-22T13:03:01;18.20;;;16.80;;
16994;SDS011;8614;48.522;9.206;2023-11-22T13:05:28;18.67;;;17.27;;
16994;SDS011;8614;48.522;9.206;2023-11-22T13:07:54;18.10;;;16.70;;
16994;SDS011;8614;48.522;9.206;2023-11-22T13:10:21;18.23;;;16.80;;
16994;SDS011;8614;48.522;9.206;2023-11-22T13:12:51;19.03;;;17.63;;
16994;SDS011;8614;48.522;9.206;2023-11-22T13:15:19;18.17;;;16.90;;
16994;SDS011;8614;48.522;9.206;2023-11-22T13:17:51;19.47;;;17.93;;
16994;SDS011;8614;48.522;9.206;2023-11-22T13:20:20;19.30;;;17.80;;
16994;SDS011;8614;48.522;9.206;2023-11-22T13:22:50;19.00;;;17.70;;
16994;SDS011;8614;48.522;9.206;2023-11-22T13:25:18;18.17;;;16.87;;
16994;SDS011;8614;48.522;9.206;2023-11-22T13:27:46;18.10;;;16.70;;
16994;SDS011;8614;48.522;9.206;2023-11-22T13:30:13;17.80;;;16.50;;
16994;SDS011;8614;48.522;9.206;2023-11-22T13:32:40;19.27;;;17.77;;
16994;SDS011;8614;48.522;9.206;2023-11-22T13:35:09;18.63;;;17.07;;
16994;SDS011;8614;48.522;9.206;2023-11-22T13:37:40;18.57;;;17.17;;
16994;SDS011;8614;48.522;9.206;2023-11-22T13:40:09;18.63;;;17.13;;
16994;SDS011;8614;48.522;9.206;2023-11-22T13:42:41;18.83;;;17.43;;
16994;SDS011;8614;48.522;9.206;2023-11-22T13:45:09;18.97;;;17.57;;
16994;SDS011;8614;48.522;9.206;2023-11-22T13:47:40;19.67;;;18.17;;
16994;SDS011;8614;48.522;9.206;2023-11-22T13:50:10;18.30;;;17.00;;
16994;SDS011;8614;48.522;9.206;2023-11-22T13:52:38;18.47;;;17.03;;
16994;SDS011;8614;48.522;9.206;2023-11-22T13:55:05;18.53;;;17.13;;
16994;SDS011;8614;48.522;9.206;2023-11-22T13:57:35;19.10;;;17.60;;
16994;SDS011;8614;48.522;9.206;2023-11-22T14:00:03;17.93;;;16.63;;
16994;SDS011;8614;48.522;9.206;2023-11-22T14:02:34;18.37;;;17.07;;
16994;SDS011;8614;48.522;9.206;2023-11-22T14:05:01;18.80;;;17.30;;
16994;SDS011;8614;48.522;9.206;2023-11-22T14:07:34;18.60;;;17.20;;
16994;SDS011;8614;48.522;9.206;2023-11-22T14:10:02;18.37;;;17.07;;
16994;SDS011;8614;48.522;9.206;2023-11-22T14:12:30;19.33;;;17.93;;
16994;SDS011;8614;48.522;9.206;2023-11-22T14:14:57;18.23;;;16.83;;
16994;SDS011;8614;48.522;9.206;2023-11-22T14:17:24;18.20;;;16.90;;
16994;SDS011;8614;48.522;9.206;2023-11-22T14:19:51;18.80;;;17.40;;
16994;SDS011;8614;48.522;9.206;2023-11-22T14:22:19;19.80;;;18.40;;
16994;SDS011;8614;48.522;9.206;2023-11-22T14:24:48;19.70;;;18.20;;
16994;SDS011;8614;48.522;9.206;2023-11-22T14:27:15;19.40;;;17.90;;
16994;SDS011;8614;48.522;9.206;2023-11-22T14:29:43;19.20;;;17.80;;
16994;SDS011;8614;48.522;9.206;2023-11-22T14:32:13;19.67;;;18.10;;
16994;SDS011;8614;48.522;9.206;2023-11-22T14:34:39;20.37;;;18.77;;
16994;SDS011;8614;48.522;9.206;2023-11-22T14:37:08;19.50;;;17.90;;
16994;SDS011;8614;48.522;9.206;2023-11-22T14:39:35;20.13;;;18.37;;
16994;SDS011;8614;48.522;9.206;2023-11-22T14:42:03;19.33;;;17.83;;